Hepler, Pennsylvania
Current Conditions -  °F | °C
As of 12:53 PM on Friday 28 Nov 2014 (Local Time) from KSEG Reporting Station
Broken Clouds Broken Clouds  
Wind Chill: 24°   Ceiling: 5000
Heat Index: 33°   Visibility: 10mi
Dew Point: 14°   Wind: 12mph
Humidity: 46%   Direction: 310°NW
Pressure: 30.24"   Gusts: 17mph
Location:  40.6691°N, 76.6267°W
Report Text: KSEG 281753Z AUTO 31010G15KT 10SM BKN050 01/M10 A3024 RMK AO2 SLP243 T00061100 10006 21022 58009
Loading
Personal Weather Stations






























Interactive Weather Map New forecast layout! Learn more

10-Day Weather Forecast

Advertisements
Track Severe Weather on mobile